METAR Data
IDs: Format: Raw Decoded Include TAF

Data at: 0222 UTC 25 Feb 2021

LIPE 250150Z 20008KT CAVOK 08/03 Q1032